createdAt,value
2022-09-17T00:00:07.138Z,88.12
2022-09-17T00:01:10.300Z,88.31
2022-09-17T00:02:13.999Z,88.18
2022-09-17T00:03:15.948Z,87.98
2022-09-17T00:04:17.632Z,88.18
2022-09-17T00:05:19.253Z,88.80
2022-09-17T00:06:20.840Z,88.44
2022-09-17T00:07:22.478Z,88.22
2022-09-17T00:08:24.025Z,88.42
2022-09-17T00:09:25.663Z,88.90
2022-09-17T00:10:27.241Z,88.50
2022-09-17T00:11:31.027Z,88.54
2022-09-17T00:12:32.623Z,88.31
2022-09-17T00:13:34.282Z,88.31
2022-09-17T00:14:35.991Z,88.65
2022-09-17T00:15:46.777Z,88.55
2022-09-17T00:16:49.501Z,88.25
2022-09-17T00:17:55.305Z,88.44
2022-09-17T00:18:57.141Z,87.89
2022-09-17T00:19:59.193Z,88.75
2022-09-17T00:21:00.769Z,87.98
2022-09-17T00:22:02.584Z,88.12
2022-09-17T00:23:04.129Z,88.15
2022-09-17T00:24:06.598Z,88.53
2022-09-17T00:25:08.759Z,88.15
2022-09-17T00:26:10.426Z,88.46
2022-09-17T00:27:11.989Z,88.26
2022-09-17T00:28:14.057Z,88.16
2022-09-17T00:29:15.744Z,88.27
2022-09-17T00:30:17.334Z,88.26
2022-09-17T00:31:19.139Z,87.83
2022-09-17T00:32:20.820Z,87.59
2022-09-17T00:33:22.384Z,87.53
2022-09-17T00:34:25.142Z,87.44
2022-09-17T00:35:26.813Z,87.06
2022-09-17T00:36:28.884Z,87.45
2022-09-17T00:37:30.435Z,87.68
2022-09-17T00:38:32.657Z,87.16
2022-09-17T00:39:34.204Z,87.25
2022-09-17T00:40:35.968Z,87.09
2022-09-17T00:41:38.253Z,87.55
2022-09-17T00:42:39.819Z,87.03
2022-09-17T00:43:47.774Z,87.12
2022-09-17T00:44:53.756Z,87.21
2022-09-17T00:45:55.298Z,87.35
2022-09-17T00:46:58.173Z,87.52
2022-09-17T00:48:04.207Z,87.02
2022-09-17T00:49:28.239Z,87.00
2022-09-17T00:50:36.996Z,86.90
2022-09-17T00:51:40.736Z,87.46
2022-09-17T00:52:47.816Z,87.03
2022-09-17T00:53:49.425Z,87.12
2022-09-17T00:54:58.504Z,86.81
2022-09-17T00:56:25.866Z,86.66
2022-09-17T00:57:27.448Z,86.74
2022-09-17T00:58:29.092Z,87.15
2022-09-17T00:59:30.673Z,86.96
2022-09-17T01:00:32.350Z,87.15
2022-09-17T01:01:34.119Z,87.53
2022-09-17T01:02:35.913Z,87.19
2022-09-17T01:03:37.516Z,87.35
2022-09-17T01:04:39.071Z,87.17
2022-09-17T01:05:57.064Z,87.05
2022-09-17T01:07:29.510Z,86.96
2022-09-17T01:08:40.090Z,87.35
2022-09-17T01:09:57.145Z,87.59
2022-09-17T01:11:25.982Z,87.56
2022-09-17T01:12:47.941Z,87.34
2022-09-17T01:14:07.860Z,87.47
2022-09-17T01:15:28.032Z,87.48
2022-09-17T01:17:17.080Z,87.36
2022-09-17T01:18:49.777Z,86.84
2022-09-17T01:20:30.426Z,87.23
2022-09-17T01:21:49.123Z,87.48
2022-09-17T01:23:12.161Z,87.33
2022-09-17T01:24:44.683Z,87.16
2022-09-17T01:25:58.313Z,86.65
2022-09-17T01:27:37.164Z,87.29
2022-09-17T01:28:43.648Z,87.04
2022-09-17T01:30:06.708Z,86.92
2022-09-17T01:31:17.637Z,87.16
2022-09-17T01:32:31.489Z,87.10
2022-09-17T01:34:01.579Z,86.70
2022-09-17T01:35:12.379Z,86.71
2022-09-17T01:36:17.573Z,86.72
2022-09-17T01:37:26.787Z,86.52
2022-09-17T01:38:45.920Z,87.24
2022-09-17T01:40:01.023Z,86.70
2022-09-17T01:41:07.691Z,86.52
2022-09-17T01:42:24.544Z,87.05
2022-09-17T01:43:38.153Z,86.86
2022-09-17T01:45:12.267Z,86.89
2022-09-17T01:46:22.560Z,87.16
2022-09-17T01:47:30.518Z,86.97
2022-09-17T01:48:36.281Z,87.06
2022-09-17T01:49:38.068Z,86.94
2022-09-17T01:50:43.023Z,86.90
2022-09-17T01:51:46.465Z,86.68
2022-09-17T01:52:49.023Z,86.44
2022-09-17T01:54:01.043Z,86.72
2022-09-17T01:55:08.716Z,86.09
2022-09-17T01:56:11.441Z,86.16
2022-09-17T01:57:16.553Z,85.90
2022-09-17T01:58:21.434Z,85.61
2022-09-17T01:59:50.117Z,85.86
2022-09-17T02:00:54.297Z,85.96
2022-09-17T02:02:03.351Z,86.30
2022-09-17T02:03:13.313Z,85.92
2022-09-17T02:04:22.704Z,85.94
2022-09-17T02:05:59.850Z,85.88
2022-09-17T02:07:04.955Z,85.66
2022-09-17T02:08:11.101Z,85.58
2022-09-17T02:09:18.163Z,85.20
2022-09-17T02:10:21.784Z,85.29
2022-09-17T02:11:23.407Z,85.92
2022-09-17T02:12:29.044Z,85.57
2022-09-17T02:13:33.562Z,85.73
2022-09-17T02:14:38.305Z,85.72
2022-09-17T02:15:47.120Z,85.65
2022-09-17T02:16:53.604Z,85.29
2022-09-17T02:17:58.363Z,84.99
2022-09-17T02:19:10.725Z,85.33
2022-09-17T02:20:12.705Z,85.20
2022-09-17T02:21:17.494Z,85.28
2022-09-17T02:22:23.413Z,85.03
2022-09-17T02:23:28.745Z,85.14
2022-09-17T02:24:32.369Z,85.51
2022-09-17T02:25:37.706Z,85.14
2022-09-17T02:26:41.018Z,84.97
2022-09-17T02:27:51.190Z,85.31
2022-09-17T02:28:58.791Z,84.66
2022-09-17T02:30:00.352Z,84.69
2022-09-17T02:31:01.953Z,84.32
2022-09-17T02:32:03.948Z,84.89
2022-09-17T02:33:07.049Z,84.99
2022-09-17T02:34:08.699Z,84.90
2022-09-17T02:35:10.969Z,85.07
2022-09-17T02:36:12.579Z,84.73
2022-09-17T02:37:14.134Z,84.61
2022-09-17T02:38:23.399Z,84.67
2022-09-17T02:39:25.263Z,84.35
2022-09-17T02:40:28.487Z,84.80
2022-09-17T02:41:43.672Z,84.60
2022-09-17T02:43:26.141Z,84.89
2022-09-17T02:44:37.786Z,84.66
2022-09-17T02:46:00.310Z,84.69
2022-09-17T02:47:20.443Z,84.77
2022-09-17T02:48:38.900Z,85.27
2022-09-17T02:50:04.656Z,85.27
2022-09-17T02:51:11.360Z,84.79
2022-09-17T02:52:22.566Z,84.86
2022-09-17T02:53:40.112Z,84.49
2022-09-17T02:54:42.947Z,84.77
2022-09-17T02:56:21.499Z,84.98
2022-09-17T02:57:43.398Z,85.37
2022-09-17T02:59:24.950Z,84.73
2022-09-17T03:00:28.503Z,84.45
2022-09-17T03:01:41.147Z,84.58
2022-09-17T03:02:54.337Z,84.75
2022-09-17T03:03:56.348Z,85.46
2022-09-17T03:04:57.923Z,85.02
2022-09-17T03:05:59.834Z,84.66
2022-09-17T03:07:06.164Z,84.59
2022-09-17T03:08:08.531Z,84.62
2022-09-17T03:09:10.169Z,84.29
2022-09-17T03:10:11.732Z,84.72
2022-09-17T03:11:14.048Z,84.59
2022-09-17T03:12:15.924Z,84.89
2022-09-17T03:13:17.531Z,84.97
2022-09-17T03:14:20.805Z,84.69
2022-09-17T03:15:22.397Z,84.56
2022-09-17T03:16:25.209Z,85.26
2022-09-17T03:17:26.940Z,84.72
2022-09-17T03:18:28.515Z,84.82
2022-09-17T03:19:30.155Z,84.79
2022-09-17T03:20:31.880Z,84.88
2022-09-17T03:21:33.430Z,84.61
2022-09-17T03:22:35.794Z,84.51
2022-09-17T03:23:37.417Z,84.52
2022-09-17T03:24:39.046Z,84.62
2022-09-17T03:25:40.634Z,84.55
2022-09-17T03:26:42.197Z,84.53
2022-09-17T03:27:43.752Z,84.71
2022-09-17T03:28:45.323Z,84.22
2022-09-17T03:29:46.892Z,84.43
2022-09-17T03:30:48.535Z,84.12
2022-09-17T03:31:50.254Z,84.06
2022-09-17T03:32:51.886Z,84.18
2022-09-17T03:33:53.492Z,84.05
2022-09-17T03:34:55.134Z,84.05
2022-09-17T03:35:56.703Z,84.29
2022-09-17T03:36:58.322Z,84.17
2022-09-17T03:38:00.181Z,84.17
2022-09-17T03:39:01.778Z,84.31
2022-09-17T03:40:03.675Z,84.31
2022-09-17T03:41:07.262Z,84.16
2022-09-17T03:42:08.872Z,84.68
2022-09-17T03:43:10.590Z,84.25
2022-09-17T03:44:12.200Z,83.88
2022-09-17T03:45:13.779Z,84.17
2022-09-17T03:46:15.441Z,83.38
2022-09-17T03:47:17.436Z,83.23
2022-09-17T03:48:19.028Z,82.45
2022-09-17T03:49:20.626Z,82.91
2022-09-17T03:50:22.218Z,82.40
2022-09-17T03:51:23.866Z,83.05
2022-09-17T03:52:25.420Z,82.59
2022-09-17T03:53:26.968Z,83.16
2022-09-17T03:54:28.635Z,82.64
2022-09-17T03:55:30.203Z,82.37
2022-09-17T03:56:31.827Z,83.01
2022-09-17T03:57:33.460Z,83.13
2022-09-17T03:58:35.020Z,83.29
2022-09-17T03:59:36.654Z,82.95
2022-09-17T04:00:38.212Z,83.42
2022-09-17T04:01:39.902Z,83.30
2022-09-17T04:02:41.803Z,82.99
2022-09-17T04:03:43.578Z,81.83
2022-09-17T04:04:45.135Z,82.04
2022-09-17T04:05:46.787Z,81.96
2022-09-17T04:06:48.761Z,81.85
2022-09-17T04:07:50.288Z,81.45
2022-09-17T04:08:51.850Z,82.08
2022-09-17T04:09:53.482Z,82.31
2022-09-17T04:10:55.025Z,81.50
2022-09-17T04:11:56.589Z,82.30
2022-09-17T04:12:58.159Z,82.39
2022-09-17T04:14:00.011Z,82.16
2022-09-17T04:15:01.606Z,81.99
2022-09-17T04:16:03.497Z,82.02
2022-09-17T04:17:05.189Z,81.66
2022-09-17T04:18:06.749Z,82.14
2022-09-17T04:19:08.483Z,81.69
2022-09-17T04:20:10.231Z,81.78
2022-09-17T04:21:11.854Z,82.22
2022-09-17T04:22:13.416Z,82.41
2022-09-17T04:23:15.010Z,82.86
2022-09-17T04:24:16.666Z,82.31
2022-09-17T04:25:18.470Z,81.83
2022-09-17T04:26:20.034Z,81.83
2022-09-17T04:27:21.651Z,82.37
2022-09-17T04:28:23.263Z,82.07
2022-09-17T04:29:24.897Z,83.19
2022-09-17T04:30:26.490Z,82.90
2022-09-17T04:31:28.283Z,82.16
2022-09-17T04:32:29.949Z,82.69
2022-09-17T04:33:31.593Z,82.60
2022-09-17T04:34:33.220Z,83.04
2022-09-17T04:35:34.856Z,82.36
2022-09-17T04:36:36.439Z,82.44
2022-09-17T04:37:38.003Z,82.22
2022-09-17T04:38:39.626Z,82.18
2022-09-17T04:39:41.218Z,82.51
2022-09-17T04:40:43.038Z,82.33
2022-09-17T04:41:44.629Z,82.56
2022-09-17T04:42:46.208Z,82.66
2022-09-17T04:43:47.927Z,82.57
2022-09-17T04:44:49.473Z,82.46
2022-09-17T04:45:51.486Z,82.32
2022-09-17T04:46:53.164Z,82.31
2022-09-17T04:47:54.784Z,82.40
2022-09-17T04:48:56.446Z,82.75
2022-09-17T04:49:58.072Z,82.32
2022-09-17T04:50:59.659Z,82.52
2022-09-17T04:52:01.344Z,82.34
2022-09-17T04:53:03.331Z,82.36
2022-09-17T04:54:05.044Z,82.50
2022-09-17T04:55:06.903Z,82.21
2022-09-17T04:56:08.540Z,82.11
2022-09-17T04:57:10.112Z,81.91
2022-09-17T04:58:11.651Z,81.75
2022-09-17T04:59:13.331Z,82.18
2022-09-17T05:00:15.755Z,82.17
2022-09-17T05:01:18.900Z,82.21
2022-09-17T05:02:20.614Z,82.16
2022-09-17T05:03:22.259Z,82.18
2022-09-17T05:04:23.903Z,82.33
2022-09-17T05:05:25.616Z,82.34
2022-09-17T05:06:27.169Z,82.43
2022-09-17T05:07:28.852Z,81.99
2022-09-17T05:08:30.419Z,82.09
2022-09-17T05:09:31.983Z,82.08
2022-09-17T05:10:33.558Z,81.93
2022-09-17T05:11:35.124Z,81.88
2022-09-17T05:12:36.865Z,81.38
2022-09-17T05:13:38.515Z,81.24
2022-09-17T05:14:40.073Z,81.43
2022-09-17T05:15:41.729Z,80.94
2022-09-17T05:16:43.325Z,80.61
2022-09-17T05:17:45.409Z,81.38
2022-09-17T05:18:47.985Z,81.28
2022-09-17T05:19:49.542Z,81.05
2022-09-17T05:20:51.091Z,81.09
2022-09-17T05:21:52.634Z,80.88
2022-09-17T05:22:54.242Z,81.92
2022-09-17T05:23:55.796Z,81.57
2022-09-17T05:24:57.385Z,81.26
2022-09-17T05:26:00.351Z,81.39
2022-09-17T05:27:02.026Z,81.16
2022-09-17T05:28:03.734Z,81.56
2022-09-17T05:29:05.362Z,81.20
2022-09-17T05:30:08.230Z,81.40
2022-09-17T05:31:09.842Z,81.71
2022-09-17T05:32:11.423Z,81.61
2022-09-17T05:33:13.109Z,81.60
2022-09-17T05:34:14.706Z,81.96
2022-09-17T05:35:16.360Z,81.29
2022-09-17T05:36:18.009Z,81.63
2022-09-17T05:37:19.646Z,81.88
2022-09-17T05:38:21.329Z,81.57
2022-09-17T05:39:25.451Z,81.61
2022-09-17T05:40:28.174Z,81.58
2022-09-17T05:41:29.858Z,81.58
2022-09-17T05:42:31.487Z,81.36
2022-09-17T05:43:33.537Z,81.08
2022-09-17T05:44:35.186Z,81.21
2022-09-17T05:45:37.581Z,81.58
2022-09-17T05:46:39.179Z,81.41
2022-09-17T05:47:40.830Z,81.71
2022-09-17T05:48:42.421Z,81.78
2022-09-17T05:49:44.020Z,81.28
2022-09-17T05:50:45.583Z,81.01
2022-09-17T05:51:47.198Z,80.96
2022-09-17T05:52:48.762Z,81.26
2022-09-17T05:53:50.336Z,81.41
2022-09-17T05:54:51.984Z,80.86
2022-09-17T05:55:59.799Z,80.99
2022-09-17T05:57:01.880Z,81.22
2022-09-17T05:58:14.425Z,81.07
2022-09-17T05:59:16.047Z,81.31
2022-09-17T06:00:17.694Z,81.22
2022-09-17T06:01:20.551Z,81.49
2022-09-17T06:02:22.172Z,81.89
2022-09-17T06:03:23.849Z,81.50
2022-09-17T06:04:25.520Z,81.47
2022-09-17T06:05:27.103Z,81.47
2022-09-17T06:06:30.592Z,81.35
2022-09-17T06:07:32.169Z,81.67
2022-09-17T06:08:35.348Z,81.59
2022-09-17T06:09:41.110Z,81.06
2022-09-17T06:10:42.783Z,81.62
2022-09-17T06:11:45.075Z,81.29
2022-09-17T06:12:46.700Z,80.73
2022-09-17T06:13:49.829Z,80.45
2022-09-17T06:14:51.368Z,80.96
2022-09-17T06:15:53.807Z,80.61
2022-09-17T06:16:56.164Z,81.05
2022-09-17T06:17:57.784Z,79.91
2022-09-17T06:18:59.775Z,80.13
2022-09-17T06:20:02.038Z,80.03
2022-09-17T06:21:04.093Z,80.58
2022-09-17T06:22:05.935Z,79.60
2022-09-17T06:23:07.573Z,79.53
2022-09-17T06:24:10.489Z,79.57
2022-09-17T06:25:12.316Z,79.60
2022-09-17T06:26:13.914Z,79.56
2022-09-17T06:27:15.532Z,80.05
2022-09-17T06:28:17.155Z,79.80
2022-09-17T06:29:18.745Z,80.81
2022-09-17T06:30:20.297Z,80.08
2022-09-17T06:31:21.885Z,80.20
2022-09-17T06:32:23.492Z,80.08
2022-09-17T06:33:26.081Z,79.99
2022-09-17T06:34:27.718Z,79.93
2022-09-17T06:35:29.366Z,80.25
2022-09-17T06:36:30.917Z,79.76
2022-09-17T06:37:32.712Z,80.08
2022-09-17T06:38:35.081Z,80.00
2022-09-17T06:39:36.844Z,80.75
2022-09-17T06:40:38.506Z,80.55
2022-09-17T06:41:42.383Z,78.92
2022-09-17T06:42:44.010Z,79.97
2022-09-17T06:43:45.651Z,79.11
2022-09-17T06:44:47.205Z,79.20
2022-09-17T06:45:55.386Z,79.73
2022-09-17T06:46:57.012Z,79.71
2022-09-17T06:47:58.815Z,78.70
2022-09-17T06:49:00.404Z,79.36
2022-09-17T06:50:02.159Z,79.07
2022-09-17T06:51:05.371Z,78.33
2022-09-17T06:52:06.945Z,78.83
2022-09-17T06:53:09.100Z,78.79
2022-09-17T06:54:10.746Z,78.99
2022-09-17T06:55:12.378Z,78.53
2022-09-17T06:56:13.915Z,78.76
2022-09-17T06:57:15.465Z,78.87
2022-09-17T06:58:17.144Z,78.64
2022-09-17T06:59:19.083Z,78.85
2022-09-17T07:00:20.773Z,79.20
2022-09-17T07:01:22.441Z,79.16
2022-09-17T07:02:24.159Z,78.21
2022-09-17T07:03:25.802Z,78.31
2022-09-17T07:04:27.417Z,78.39
2022-09-17T07:05:29.296Z,77.85
2022-09-17T07:06:30.875Z,78.25
2022-09-17T07:07:32.476Z,77.32
2022-09-17T07:08:36.561Z,76.89
2022-09-17T07:09:38.182Z,76.28
2022-09-17T07:10:39.759Z,76.96
2022-09-17T07:11:41.350Z,77.34
2022-09-17T07:12:46.647Z,77.03
2022-09-17T07:13:50.793Z,77.20
2022-09-17T07:14:52.883Z,76.84
2022-09-17T07:15:55.514Z,76.64
2022-09-17T07:16:57.165Z,76.64
2022-09-17T07:17:58.772Z,76.51
2022-09-17T07:19:00.630Z,76.29
2022-09-17T07:20:02.347Z,77.00
2022-09-17T07:21:05.309Z,77.26
2022-09-17T07:22:07.135Z,76.25
2022-09-17T07:23:08.756Z,76.37
2022-09-17T07:24:10.321Z,76.20
2022-09-17T07:25:11.995Z,76.39
2022-09-17T07:26:14.330Z,75.35
2022-09-17T07:27:15.930Z,75.34
2022-09-17T07:28:17.553Z,75.88
2022-09-17T07:29:19.154Z,76.43
2022-09-17T07:30:20.987Z,76.28
2022-09-17T07:31:23.616Z,75.45
2022-09-17T07:32:25.265Z,74.54
2022-09-17T07:33:27.850Z,74.63
2022-09-17T07:34:29.430Z,74.53
2022-09-17T07:35:30.970Z,75.69
2022-09-17T07:36:32.533Z,75.81
2022-09-17T07:37:34.120Z,74.24
2022-09-17T07:38:35.743Z,74.49
2022-09-17T07:39:37.369Z,74.34
2022-09-17T07:40:39.007Z,74.11
2022-09-17T07:41:40.630Z,74.52
2022-09-17T07:42:42.236Z,74.39
2022-09-17T07:43:43.977Z,74.19
2022-09-17T07:44:46.824Z,74.46
2022-09-17T07:45:48.381Z,75.21
2022-09-17T07:46:50.078Z,75.41
2022-09-17T07:47:51.759Z,74.56
2022-09-17T07:48:53.519Z,74.66
2022-09-17T07:49:55.082Z,74.09
2022-09-17T07:50:56.791Z,74.07
2022-09-17T07:51:59.989Z,73.86
2022-09-17T07:53:01.568Z,73.86
2022-09-17T07:54:03.272Z,74.16
2022-09-17T07:55:05.165Z,74.79
2022-09-17T07:56:11.674Z,74.70
2022-09-17T07:57:13.613Z,74.98
2022-09-17T07:58:15.192Z,74.91
2022-09-17T07:59:17.353Z,75.31
2022-09-17T08:00:19.477Z,75.15
2022-09-17T08:01:22.726Z,74.47
2022-09-17T08:02:24.725Z,74.76
2022-09-17T08:03:26.841Z,74.55
2022-09-17T08:04:28.466Z,74.60
2022-09-17T08:05:30.081Z,74.93
2022-09-17T08:06:31.650Z,74.44
2022-09-17T08:07:33.204Z,75.18
2022-09-17T08:08:35.968Z,74.69
2022-09-17T08:09:37.678Z,75.42
2022-09-17T08:10:39.224Z,75.27
2022-09-17T08:11:56.954Z,74.98
2022-09-17T08:12:58.764Z,75.62
2022-09-17T08:14:00.751Z,75.74
2022-09-17T08:15:02.453Z,75.72
2022-09-17T08:16:08.599Z,75.22
2022-09-17T08:17:10.269Z,75.04
2022-09-17T08:18:11.862Z,74.02
2022-09-17T08:19:13.923Z,74.18
2022-09-17T08:20:15.840Z,74.70
2022-09-17T08:21:18.433Z,75.08
2022-09-17T08:22:20.391Z,74.78
2022-09-17T08:23:21.987Z,75.45
2022-09-17T08:24:23.596Z,75.12
2022-09-17T08:25:25.221Z,74.39
2022-09-17T08:26:28.004Z,74.49
2022-09-17T08:27:31.078Z,74.21
2022-09-17T08:28:32.635Z,74.28
2022-09-17T08:29:35.389Z,74.79
2022-09-17T08:30:37.067Z,74.50
2022-09-17T08:31:38.799Z,74.78
2022-09-17T08:32:40.555Z,74.72
2022-09-17T08:33:42.374Z,75.25
2022-09-17T08:34:43.951Z,75.25
2022-09-17T08:35:55.020Z,74.76
2022-09-17T08:36:56.793Z,75.44
2022-09-17T08:37:58.458Z,75.37
2022-09-17T08:39:00.962Z,75.92
2022-09-17T08:40:02.938Z,75.85
2022-09-17T08:41:10.786Z,75.91
2022-09-17T08:42:14.317Z,76.06
2022-09-17T08:43:16.944Z,76.42
2022-09-17T08:44:18.467Z,76.39
2022-09-17T08:45:20.140Z,76.34
2022-09-17T08:46:21.817Z,75.86
2022-09-17T08:47:41.331Z,75.88
2022-09-17T08:49:03.851Z,75.27
2022-09-17T08:50:18.224Z,76.46
2022-09-17T08:51:43.569Z,76.59
2022-09-17T08:53:06.331Z,76.64
2022-09-17T08:54:27.944Z,76.62
2022-09-17T08:56:00.891Z,76.40
2022-09-17T08:57:18.085Z,76.87
2022-09-17T08:58:29.319Z,76.62
2022-09-17T08:59:44.961Z,76.31
2022-09-17T09:00:58.855Z,75.94
2022-09-17T09:02:20.932Z,75.86
2022-09-17T09:03:45.004Z,75.83
2022-09-17T09:04:53.032Z,76.46
2022-09-17T09:05:56.492Z,76.19
2022-09-17T09:07:17.471Z,77.13
2022-09-17T09:08:39.692Z,76.44
2022-09-17T09:09:51.888Z,76.33
2022-09-17T09:10:55.910Z,76.58
2022-09-17T09:12:03.252Z,76.80
2022-09-17T09:13:04.870Z,77.09
2022-09-17T09:14:30.875Z,76.31
2022-09-17T09:15:38.337Z,76.35
2022-09-17T09:16:41.416Z,76.46
2022-09-17T09:17:44.938Z,75.97
2022-09-17T09:18:47.246Z,75.47
2022-09-17T09:19:50.045Z,75.26
2022-09-17T09:21:17.841Z,75.25
2022-09-17T09:22:43.521Z,75.51
2022-09-17T09:24:01.258Z,75.24
2022-09-17T09:25:23.320Z,75.58
2022-09-17T09:26:45.974Z,74.77
2022-09-17T09:28:14.368Z,74.57
2022-09-17T09:29:29.002Z,74.36
2022-09-17T09:30:43.762Z,74.50
2022-09-17T09:32:15.804Z,74.47
2022-09-17T09:33:19.324Z,73.78
2022-09-17T09:34:20.874Z,73.56
2022-09-17T09:35:27.569Z,73.53
2022-09-17T09:36:29.317Z,73.74
2022-09-17T09:37:32.936Z,73.48
2022-09-17T09:38:38.011Z,73.26
2022-09-17T09:39:45.179Z,73.36
2022-09-17T09:41:06.070Z,73.56
2022-09-17T09:42:14.755Z,73.23
2022-09-17T09:44:03.119Z,73.16
2022-09-17T09:45:25.416Z,73.45
2022-09-17T09:47:01.000Z,72.51
2022-09-17T09:48:10.984Z,72.48
2022-09-17T09:49:30.998Z,71.58
2022-09-17T09:51:06.674Z,72.10
2022-09-17T09:52:26.880Z,72.57
2022-09-17T09:53:50.890Z,71.61
2022-09-17T09:55:29.892Z,71.71
2022-09-17T09:56:52.003Z,71.81
2022-09-17T09:58:13.770Z,72.92
2022-09-17T09:59:15.303Z,71.40
2022-09-17T10:00:30.083Z,70.84
2022-09-17T10:01:31.873Z,70.84
2022-09-17T10:02:33.629Z,71.20
2022-09-17T10:03:35.282Z,70.88
2022-09-17T10:04:36.884Z,70.14
2022-09-17T10:05:38.463Z,70.57
2022-09-17T10:06:40.711Z,69.73
2022-09-17T10:07:45.632Z,69.04
2022-09-17T10:09:07.903Z,68.72
2022-09-17T10:10:10.481Z,68.73
2022-09-17T10:11:12.009Z,69.67
2022-09-17T10:12:13.684Z,69.53
2022-09-17T10:13:15.400Z,69.98
2022-09-17T10:14:27.310Z,70.31
2022-09-17T10:15:29.125Z,69.88
2022-09-17T10:16:32.291Z,69.80
2022-09-17T10:17:33.975Z,69.05
2022-09-17T10:18:35.541Z,69.18
2022-09-17T10:19:37.419Z,69.54
2022-09-17T10:20:57.713Z,69.83
2022-09-17T10:21:59.267Z,69.99
2022-09-17T10:23:01.233Z,70.32
2022-09-17T10:24:03.512Z,69.45
2022-09-17T10:25:06.894Z,69.12
2022-09-17T10:26:08.457Z,68.84
2022-09-17T10:27:17.571Z,68.34
2022-09-17T10:28:33.146Z,68.83
2022-09-17T10:29:34.731Z,68.40
2022-09-17T10:30:36.347Z,68.16
2022-09-17T10:31:51.305Z,68.39
2022-09-17T10:33:13.897Z,66.94
2022-09-17T10:34:25.989Z,67.40
2022-09-17T10:35:28.293Z,68.20
2022-09-17T10:36:38.066Z,68.52
2022-09-17T10:37:49.866Z,68.64
2022-09-17T10:38:51.519Z,68.91
2022-09-17T10:39:53.737Z,69.53
2022-09-17T10:41:09.746Z,70.36
2022-09-17T10:42:11.284Z,69.29
2022-09-17T10:43:14.359Z,69.40
2022-09-17T10:44:21.631Z,69.77
2022-09-17T10:45:27.574Z,69.58
2022-09-17T10:46:30.542Z,69.88
2022-09-17T10:47:36.453Z,69.74
2022-09-17T10:48:41.575Z,69.88
2022-09-17T10:50:06.488Z,70.38
2022-09-17T10:51:08.928Z,70.00
2022-09-17T10:52:15.222Z,68.86
2022-09-17T10:53:17.320Z,69.12
2022-09-17T10:54:23.913Z,69.67
2022-09-17T10:55:46.909Z,69.76
2022-09-17T10:56:51.508Z,69.36
2022-09-17T10:58:07.735Z,69.20
2022-09-17T10:59:15.048Z,68.84
2022-09-17T11:00:20.684Z,68.44
2022-09-17T11:01:54.651Z,68.53
2022-09-17T11:03:14.188Z,68.15
2022-09-17T11:04:28.009Z,67.85
2022-09-17T11:05:46.422Z,67.59
2022-09-17T11:07:32.570Z,67.28
2022-09-17T11:08:38.820Z,66.86
2022-09-17T11:09:56.350Z,66.90
2022-09-17T11:11:09.349Z,66.94
2022-09-17T11:12:24.572Z,67.58
2022-09-17T11:13:46.370Z,67.96
2022-09-17T11:14:51.102Z,68.24
2022-09-17T11:16:20.137Z,68.73
2022-09-17T11:17:27.820Z,68.01
2022-09-17T11:18:34.306Z,68.65
2022-09-17T11:20:07.328Z,67.82
2022-09-17T11:21:24.418Z,66.70
2022-09-17T11:22:47.195Z,66.35
2022-09-17T11:24:13.687Z,66.19
2022-09-17T11:25:27.714Z,65.94
2022-09-17T11:26:45.005Z,66.27
2022-09-17T11:27:55.078Z,66.46
2022-09-17T11:29:05.552Z,66.68
2022-09-17T11:30:21.723Z,66.78
2022-09-17T11:31:55.231Z,65.99
2022-09-17T11:33:13.380Z,66.41
2022-09-17T11:34:25.632Z,66.01
2022-09-17T11:35:28.282Z,65.86
2022-09-17T11:36:33.370Z,65.16
2022-09-17T11:37:49.095Z,65.08
2022-09-17T11:38:53.806Z,65.23
2022-09-17T11:40:11.870Z,65.01
2022-09-17T11:41:19.497Z,65.20
2022-09-17T11:42:32.053Z,65.25
2022-09-17T11:43:40.532Z,65.41
2022-09-17T11:44:55.937Z,64.22
2022-09-17T11:46:01.711Z,63.72
2022-09-17T11:47:10.333Z,63.09
2022-09-17T11:48:15.822Z,64.11
2022-09-17T11:49:26.310Z,63.47
2022-09-17T11:50:40.135Z,64.57
2022-09-17T11:51:44.311Z,64.48
2022-09-17T11:53:30.709Z,65.48
2022-09-17T11:54:47.804Z,63.15
2022-09-17T11:56:17.846Z,62.38
2022-09-17T11:57:32.955Z,62.27
2022-09-17T11:58:42.340Z,62.33
2022-09-17T12:00:02.378Z,61.84
2022-09-17T12:01:12.633Z,62.55
2022-09-17T12:02:26.586Z,62.04
2022-09-17T12:03:33.584Z,61.86
2022-09-17T12:04:47.614Z,62.26
2022-09-17T12:05:54.559Z,62.49
2022-09-17T12:07:22.590Z,62.65
2022-09-17T12:08:44.164Z,61.51
2022-09-17T12:09:46.838Z,62.31
2022-09-17T12:11:23.272Z,61.78
2022-09-17T12:12:47.830Z,62.21
2022-09-17T12:13:53.019Z,62.43
2022-09-17T12:15:06.520Z,62.52
2022-09-17T12:16:13.919Z,63.46
2022-09-17T12:17:20.386Z,63.66
2022-09-17T12:19:00.785Z,63.17
2022-09-17T12:20:18.166Z,62.37
2022-09-17T12:21:22.476Z,63.09
2022-09-17T12:22:28.299Z,63.13
2022-09-17T12:23:42.062Z,63.02
2022-09-17T12:24:43.697Z,63.36
2022-09-17T12:25:53.434Z,64.25
2022-09-17T12:27:15.908Z,64.12
2022-09-17T12:28:21.579Z,64.34
2022-09-17T12:29:34.941Z,64.20
2022-09-17T12:30:42.463Z,64.48
2022-09-17T12:32:02.810Z,65.25
2022-09-17T12:33:15.431Z,64.77
2022-09-17T12:34:43.061Z,64.26
2022-09-17T12:36:20.886Z,64.19
2022-09-17T12:37:43.369Z,64.18
2022-09-17T12:38:55.888Z,64.21
2022-09-17T12:40:43.130Z,64.23
2022-09-17T12:42:07.746Z,63.65
2022-09-17T12:43:28.893Z,63.91
2022-09-17T12:44:41.570Z,63.26
2022-09-17T12:45:51.802Z,63.52
2022-09-17T12:47:02.537Z,63.92
2022-09-17T12:48:06.751Z,64.14
2022-09-17T12:49:25.441Z,64.52
2022-09-17T12:50:46.254Z,64.77
2022-09-17T12:51:51.994Z,63.48
2022-09-17T12:53:27.229Z,63.94
2022-09-17T12:54:50.632Z,63.23
2022-09-17T12:56:14.741Z,63.69
2022-09-17T12:57:38.399Z,64.24
2022-09-17T12:58:45.828Z,64.44
2022-09-17T13:00:07.651Z,64.85
2022-09-17T13:01:48.279Z,64.12
2022-09-17T13:03:06.141Z,64.22
2022-09-17T13:04:57.196Z,64.41
2022-09-17T13:06:39.931Z,64.55
2022-09-17T13:07:48.573Z,64.66
2022-09-17T13:09:17.602Z,65.25
2022-09-17T13:10:47.430Z,64.98
2022-09-17T13:12:10.223Z,65.09
2022-09-17T13:13:11.777Z,65.12
2022-09-17T13:14:46.117Z,65.44
2022-09-17T13:16:13.408Z,64.06
2022-09-17T13:17:24.874Z,64.94
2022-09-17T13:18:41.421Z,64.51
2022-09-17T13:20:04.463Z,64.44
2022-09-17T13:21:13.295Z,64.83
2022-09-17T13:22:18.544Z,65.39
2022-09-17T13:23:51.573Z,66.21
2022-09-17T13:25:09.711Z,65.71
2022-09-17T13:26:13.403Z,65.29
2022-09-17T13:27:26.217Z,65.98
2022-09-17T13:28:47.324Z,65.46
2022-09-17T13:29:55.592Z,65.58
2022-09-17T13:31:01.142Z,65.71
2022-09-17T13:32:02.760Z,66.03
2022-09-17T13:33:04.513Z,64.82
2022-09-17T13:34:18.358Z,63.83
2022-09-17T13:35:22.757Z,63.85
2022-09-17T13:36:34.184Z,64.41
2022-09-17T13:37:40.025Z,63.94
2022-09-17T13:38:42.162Z,64.36
2022-09-17T13:39:45.470Z,63.94
2022-09-17T13:40:47.110Z,64.14
2022-09-17T13:41:48.697Z,63.67
2022-09-17T13:42:57.512Z,64.24
2022-09-17T13:43:59.096Z,64.25
2022-09-17T13:45:13.366Z,64.23
2022-09-17T13:46:16.982Z,64.00
2022-09-17T13:47:21.443Z,64.61
2022-09-17T13:48:24.410Z,64.63
2022-09-17T13:49:25.973Z,65.01
2022-09-17T13:50:42.944Z,65.14
2022-09-17T13:51:45.247Z,64.46
2022-09-17T13:52:48.021Z,64.78
2022-09-17T13:53:53.079Z,64.66
2022-09-17T13:54:54.671Z,64.40
2022-09-17T13:56:01.089Z,64.70
2022-09-17T13:57:13.439Z,64.90
2022-09-17T13:58:21.091Z,65.35
2022-09-17T13:59:24.876Z,64.73
2022-09-17T14:00:57.364Z,65.41
2022-09-17T14:02:04.194Z,64.58
2022-09-17T14:03:34.338Z,65.08
2022-09-17T14:04:41.924Z,65.27
2022-09-17T14:05:43.500Z,64.80
2022-09-17T14:06:48.866Z,64.20
2022-09-17T14:07:51.280Z,65.01
2022-09-17T14:08:58.691Z,65.11
2022-09-17T14:10:02.141Z,64.11
2022-09-17T14:11:03.898Z,64.87
2022-09-17T14:12:48.711Z,64.71
2022-09-17T14:13:59.707Z,64.45
2022-09-17T14:15:01.270Z,63.92
2022-09-17T14:16:03.097Z,63.79
2022-09-17T14:17:04.703Z,64.41
2022-09-17T14:18:28.283Z,64.36
2022-09-17T14:19:36.918Z,64.30
2022-09-17T14:20:38.506Z,64.27
2022-09-17T14:21:41.133Z,65.13
2022-09-17T14:22:42.715Z,65.59
2022-09-17T14:23:50.080Z,65.26
2022-09-17T14:24:52.584Z,65.12
2022-09-17T14:25:55.359Z,65.17
2022-09-17T14:27:16.240Z,65.51
2022-09-17T14:28:38.564Z,65.07
2022-09-17T14:30:14.870Z,64.46
2022-09-17T14:31:18.787Z,64.48